Latest Weather Observations for Warrnambool

IDV60801

Issued at 9:33 pm EDT Friday 26 February 2021 (issued every 10 minutes, with the page automatically refreshed every 10 minutes)

About weather observations | Map of weather stations | Latest weather observations for VIC | Other Formats
Station Details ID: 090186 Name: WARRNAMBOOL AIRPORT NDB Lat: -38.29 Lon: 142.45 Height: 70.8 m
Data from the previous 72 hours. | See also: Recent months at Warrnambool
Date/Time
EDT
Temp
°C
App
Temp
°C
Dew
Point
°C
Rel
Hum
%
Delta-T
°C
Wind Press
QNH
hPa
Press
MSL
hPa
Rain since
9am
mm
Dir  Spd
km/h
Gust
km/h
Spd
kts
Gust
kts
26/09:00pm 12.5 9.6 8.0 74 2.2 SSE 13 17 7 9 1015.8 1015.6 0.2
26/08:30pm 13.7 10.0 7.9 68 2.9 SSE 17 22 9 12 1015.5 1015.3 0.2
26/08:00pm 14.4 10.6 7.7 64 3.3 SE 17 24 9 13 1015.3 1015.1 0.2
26/07:30pm 15.1 11.5 8.3 64 3.4 SSE 17 20 9 11 1015.2 1015.0 0.2
26/07:00pm 15.2 11.1 8.0 62 3.6 S 19 26 10 14 1015.0 1014.8 0.2
26/06:30pm 16.0 11.7 8.0 59 4.0 SSE 20 28 11 15 1014.7 1014.5 0.2
26/06:00pm 16.6 11.3 8.3 58 4.2 S 26 37 14 20 1014.7 1014.5 0.2
26/05:30pm 16.9 12.1 8.8 59 4.2 SSE 24 33 13 18 1014.6 1014.4 0.2
26/05:00pm 17.6 12.8 9.0 57 4.5 S 24 33 13 18 1015.0 1014.8 0.2
26/04:30pm 16.9 12.2 7.8 55 4.6 SSE 22 30 12 16 1015.1 1014.9 0.2
26/04:00pm 17.1 12.3 7.2 52 5.0 S 22 32 12 17 1015.1 1014.9 0.2
26/03:30pm 17.9 13.1 8.7 55 4.8 S 24 35 13 19 1015.1 1014.9 0.2
26/03:00pm 17.0 11.7 8.4 57 4.4 S 26 35 14 19 1015.4 1015.2 0.2
26/02:30pm 17.4 13.2 8.3 55 4.7 SSE 20 32 11 17 1015.6 1015.4 0.2
26/02:00pm 17.0 12.3 7.6 54 4.7 S 22 32 12 17 1015.8 1015.6 0.2
26/01:30pm 18.0 14.1 8.6 54 4.9 SSE 19 30 10 16 1015.9 1015.7 0.0
26/01:00pm 17.5 13.4 7.8 53 4.9 S 19 32 10 17 1016.3 1016.1 0.0
26/12:30pm 17.6 13.2 7.6 52 5.1 S 20 28 11 15 1016.4 1016.2 0.0
26/12:00pm 17.2 13.0 8.1 55 4.6 SSE 20 30 11 16 1016.6 1016.4 0.0
26/11:30am 16.7 12.0 7.9 56 4.5 S 22 28 12 15 1016.4 1016.2 0.0
26/11:00am 17.5 14.0 7.3 51 5.1 SSE 15 30 8 16 1016.4 1016.2 0.0
26/10:30am 16.3 12.4 7.0 54 4.6 S 17 26 9 14 1016.4 1016.2 0.0
26/10:00am 15.9 11.5 7.4 57 4.2 S 20 26 11 14 1016.3 1016.1 0.0
26/09:30am 15.5 11.8 7.8 60 3.9 S 17 22 9 12 1016.3 1016.1 0.0
26/09:00am 14.7 11.8 8.0 64 3.4 S 13 20 7 11 1016.1 1015.9 0.6
26/08:30am 14.3 11.2 7.1 62 3.5 SSW 13 17 7 9 1015.5 1015.3 0.6
26/08:00am 13.7 11.0 7.2 65 3.2 S 11 15 6 8 1015.3 1015.1 0.6
26/07:30am 13.2 10.5 7.2 67 2.9 S 11 15 6 8 1014.9 1014.7 0.6
26/07:00am 13.3 10.3 7.5 68 2.8 S 13 19 7 10 1014.5 1014.3 0.6
26/06:30am 13.1 10.9 7.8 70 2.6 SSW 9 15 5 8 1014.3 1014.1 0.6
26/06:00am 13.4 10.9 8.0 70 2.7 SSW 11 17 6 9 1014.0 1013.8 0.6
26/05:30am 13.5 10.4 7.3 66 3.0 S 13 17 7 9 1013.7 1013.5 0.6
26/05:00am 13.2 11.1 8.3 72 2.4 S 9 13 5 7 1013.7 1013.5 0.6
26/04:30am 13.6 10.5 7.4 66 3.0 SSW 13 22 7 12 1013.6 1013.4 0.6
26/04:00am 13.5 9.5 6.8 64 3.2 S 17 20 9 11 1013.6 1013.4 0.6
26/03:30am 13.5 10.1 7.5 67 2.9 S 15 20 8 11 1013.5 1013.3 0.6
26/03:00am 13.7 10.0 7.9 68 2.9 S 17 24 9 13 1013.5 1013.3 0.6
26/02:30am 13.6 9.9 7.8 68 2.9 SSW 17 22 9 12 1013.7 1013.5 0.6
26/02:00am 13.5 10.3 8.6 72 2.5 SSW 15 20 8 11 1013.9 1013.7 0.6
26/01:30am 13.7 10.0 7.9 68 2.9 SSW 17 22 9 12 1014.0 1013.8 0.6
26/01:00am 13.8 10.1 8.0 68 2.9 SSW 17 24 9 13 1014.0 1013.8 0.6
26/12:30am 13.7 9.9 7.5 66 3.1 S 17 22 9 12 1014.1 1013.9 0.6
26/12:00am 14.0 9.8 8.4 69 2.8 SSW 20 28 11 15 1014.1 1013.9 0.6
 
Date/Time
EDT
Temp
°C
App
Temp
°C
Dew
Point
°C
Rel
Hum
%
Delta-T
°C
Wind Press
QNH
hPa
Press
MSL
hPa
Rain since
9am
mm
Dir  Spd
km/h
Gust
km/h
Spd
kts
Gust
kts
25/11:30pm 13.5 10.4 8.8 73 2.4 SSW 15 20 8 11 1014.0 1013.8 0.6
25/11:00pm 12.4 8.4 6.7 68 2.7 SSW 17 20 9 11 1014.1 1013.9 0.6
25/10:30pm 13.5 10.2 8.1 70 2.7 SW 15 20 8 11 1014.1 1013.9 0.6
25/10:00pm 13.3 9.5 7.5 68 2.8 SW 17 22 9 12 1014.1 1013.9 0.6
25/09:30pm 13.2 9.1 7.9 70 2.6 SW 19 24 10 13 1013.8 1013.6 0.6
25/09:00pm 13.9 9.3 8.3 69 2.8 SSW 22 30 12 16 1013.4 1013.2 0.6
25/08:30pm 13.9 10.6 9.7 76 2.2 SW 17 24 9 13 1013.1 1012.9 0.6
25/08:00pm 14.3 10.3 10.5 78 2.0 SW 22 32 12 17 1012.6 1012.5 0.6
25/07:30pm 14.7 10.9 11.1 79 1.9 SW 22 30 12 16 1012.3 1012.2 0.6
25/07:00pm 15.2 10.4 11.6 79 1.9 SW 28 37 15 20 1011.9 1011.8 0.6
25/06:30pm 15.1 10.5 12.4 84 1.5 SW 28 35 15 19 1011.7 1011.6 0.6
25/06:00pm 14.9 10.1 12.9 88 1.1 SW 30 41 16 22 1011.6 1011.5 0.6
25/05:30pm 15.5 11.6 15.5 100 0.0 SW 30 39 16 21 1011.4 1011.3 0.6
25/05:11pm 14.9 11.2 14.9 100 0.0 SW 28 37 15 20 1011.2 1011.1 0.6
25/05:09pm 14.9 11.6 14.9 100 0.0 SW 26 37 14 20 1011.2 1011.1 0.6
25/05:00pm 15.4 12.6 15.4 100 0.0 SW 24 32 13 17 1011.1 1011.0 0.6
25/04:39pm 15.1 11.4 15.1 100 0.0 SW 28 37 15 20 1011.1 1011.0 0.4
25/04:30pm 15.4 11.1 15.4 100 0.0 SW 32 43 17 23 1011.0 1010.9 0.4
25/04:28pm 15.4 11.1 15.4 100 0.0 SW 32 43 17 23 1011.0 1010.9 0.4
25/04:27pm 15.3 10.8 15.3 100 0.0 SW 33 43 18 23 1011.0 1010.9 0.4
25/04:07pm 15.7 10.9 14.1 90 0.9 SW 32 43 17 23 1010.9 1010.8 0.4
25/04:00pm 17.1 13.1 14.2 83 1.7 WSW 28 41 15 22 1010.7 1010.6 0.2
25/03:36pm 17.1 12.5 15.1 88 1.2 W 33 48 18 26 1010.8 1010.7 0.2
25/03:30pm 16.4 11.3 14.8 90 0.9 W 35 48 19 26 1010.9 1010.8 0.2
25/03:17pm 16.5 12.4 16.5 100 0.0 W 33 46 18 25 1011.0 1010.9 0.2
25/03:15pm 16.1 11.8 15.9 99 0.1 W 33 46 18 25 1011.0 1010.9 0.2
25/03:00pm 15.6 9.6 14.3 92 0.7 W 39 59 21 32 1011.4 1011.3 0.2
25/02:58pm 15.7 9.2 14.1 90 0.9 W 41 59 22 32 1011.4 1011.3 0.2
25/02:55pm 16.3 9.1 13.2 82 1.7 W 43 59 23 32 1011.5 1011.4 0.0
25/02:38pm 18.1 12.4 11.7 66 3.5 W 33 56 18 30 1011.2 1011.1 0.0
25/02:30pm 18.9 13.4 11.9 64 3.9 W 32 48 17 26 1011.1 1011.0 0.0
25/02:00pm 18.6 12.3 11.2 62 4.0 W 35 46 19 25 1011.2 1011.1 0.0
25/01:30pm 19.9 14.1 11.4 58 4.7 W 33 46 18 25 1011.3 1011.2 0.0
25/01:06pm 20.1 13.4 11.1 56 4.9 WNW 37 56 20 30 1011.5 1011.4 0.0
25/01:00pm 20.4 13.2 11.9 58 4.8 W 41 56 22 30 1011.6 1011.5 0.0
25/12:30pm 20.5 14.7 11.4 56 5.0 W 33 50 18 27 1011.8 1011.7 0.0
25/12:00pm 20.0 13.7 11.2 57 4.8 W 35 48 19 26 1012.2 1012.1 0.0
25/11:33am 19.8 14.5 11.3 58 4.7 WNW 30 48 16 26 1012.4 1012.3 0.0
25/11:30am 19.1 13.8 11.4 61 4.2 W 30 39 16 21 1012.6 1012.5 0.0
25/11:00am 17.9 12.0 10.5 62 4.0 W 32 39 17 21 1012.7 1012.6 0.0
25/10:30am 16.5 11.5 10.8 69 3.1 WNW 28 43 15 23 1012.9 1012.7 0.0
25/10:00am 16.0 12.2 11.0 72 2.7 WNW 22 35 12 19 1012.6 1012.5 0.0
25/09:30am 13.7 10.9 11.2 85 1.3 NW 17 22 9 12 1012.9 1012.7 0.0
25/09:00am 12.8 8.5 10.7 87 1.1 NW 24 33 13 18 1013.0 1012.8 0.0
25/08:30am 11.4 7.8 10.5 94 0.5 NW 20 26 11 14 1013.0 1012.8 0.0
25/08:00am 10.1 6.4 10.0 99 0.1 NW 20 28 11 15 1013.2 1013.0 0.0
25/07:30am 9.2 5.4 9.2 100 0.0 NW 19 22 10 12 1013.1 1012.9 0.0
25/07:00am 6.8 2.8 6.8 100 0.0 N 17 19 9 10 1012.7 1012.6 0.0
25/06:30am 5.3 1.8 5.3 100 0.0 N 13 15 7 8 1013.0 1012.8 0.0
25/06:00am 5.5 2.0 5.5 100 0.0 N 13 15 7 8 1013.0 1012.8 0.0
25/05:30am 6.3 2.2 6.3 100 0.0 N 17 19 9 10 1012.7 1012.6 0.0
25/05:00am 5.4 2.3 5.4 100 0.0 N 11 13 6 7 1013.4 1013.2 0.0
25/04:30am 5.5 2.0 5.5 100 0.0 N 13 13 7 7 1013.7 1013.5 0.0
25/04:00am 5.4 2.3 5.4 100 0.0 N 11 13 6 7 1014.1 1013.9 0.0
25/03:30am 5.7 2.3 5.7 100 0.0 N 13 13 7 7 1014.4 1014.2 0.0
25/03:00am 6.2 2.5 6.2 100 0.0 N 15 17 8 9 1014.3 1014.1 0.0
25/02:30am 5.8 2.4 5.8 100 0.0 N 13 17 7 9 1014.9 1014.7 0.0
25/02:00am 6.3 3.0 6.2 99 0.0 N 13 13 7 7 1015.5 1015.3 0.0
25/01:30am 5.5 2.7 5.1 97 0.2 N 9 11 5 6 1016.0 1015.8 0.0
25/01:00am 5.8 3.0 5.1 95 0.3 NNW 9 11 5 6 1016.3 1016.1 0.0
25/12:30am 7.1 4.2 6.5 96 0.3 NW 11 13 6 7 1016.2 1016.0 0.0
25/12:00am 6.9 4.3 6.2 95 0.3 NW 9 11 5 6 1016.5 1016.3 0.0
 
Date/Time
EDT
Temp
°C
App
Temp
°C
Dew
Point
°C
Rel
Hum
%
Delta-T
°C
Wind Press
QNH
hPa
Press
MSL
hPa
Rain since
9am
mm
Dir  Spd
km/h
Gust
km/h
Spd
kts
Gust
kts
24/11:30pm 6.9 4.6 5.7 92 0.5 WNW 7 9 4 5 1016.9 1016.7 0.0
24/11:00pm 7.9 5.9 7.0 94 0.4 W 7 9 4 5 1017.0 1016.8 0.0
24/10:30pm 7.6 5.6 6.1 90 0.7 WSW 6 7 3 4 1017.2 1017.0 0.0
24/10:00pm 9.2 8.6 7.5 89 0.8 CALM 0 0 0 0 1017.2 1017.0 0.0
24/09:57pm 8.4 7.6 6.4 87 0.9 CALM 0 6 0 3 1017.2 1017.0 0.0
24/09:35pm 9.7 8.4 7.6 87 1.0 SSW 4 6 2 3 1017.3 1017.1 0.0
24/09:30pm 9.7 8.8 7.6 87 1.0 S 2 6 1 3 1017.2 1017.0 0.0
24/09:00pm 10.9 9.2 7.6 80 1.6 S 6 7 3 4 1017.1 1016.9 0.0
24/08:30pm 11.8 9.5 7.5 75 2.1 SSW 9 11 5 6 1017.1 1016.9 0.0
24/08:00pm 13.2 10.7 8.3 72 2.4 SSW 11 13 6 7 1017.2 1017.0 0.0
24/07:30pm 15.0 11.8 8.3 64 3.4 SSW 15 19 8 10 1017.3 1017.1 0.0
24/07:00pm 16.2 12.6 8.4 60 4.0 S 17 22 9 12 1017.4 1017.2 0.0
24/06:30pm 16.9 12.9 8.1 56 4.5 SSW 19 24 10 13 1017.4 1017.2 0.0
24/06:00pm 17.0 12.7 7.9 55 4.6 SW 20 26 11 14 1017.4 1017.2 0.0
24/05:30pm 17.6 13.5 8.5 55 4.7 SSW 20 26 11 14 1017.5 1017.3 0.0
24/05:00pm 18.0 13.9 7.7 51 5.2 SSW 19 26 10 14 1017.8 1017.6 0.0
24/04:30pm 18.2 14.0 8.2 52 5.1 SSW 20 28 11 15 1018.1 1017.9 0.0
24/04:00pm 18.3 14.2 8.0 51 5.3 SW 19 30 10 16 1018.4 1018.2 0.0
24/03:30pm 17.5 12.9 6.4 48 5.5 SSW 20 32 11 17 1019.0 1018.8 0.0
24/03:00pm 17.5 13.3 8.1 54 4.8 S 20 28 11 15 1019.4 1019.2 0.0
24/02:30pm 18.2 14.5 9.3 56 4.7 SW 19 30 10 16 1019.6 1019.4 0.0
24/02:00pm 18.0 14.0 9.1 56 4.6 SSW 20 28 11 15 1019.7 1019.5 0.0
24/01:30pm 18.5 14.7 9.0 54 5.0 S 19 28 10 15 1020.0 1019.8 0.0
24/01:00pm 16.6 13.0 8.3 58 4.2 S 17 26 9 14 1020.5 1020.3 0.0
24/12:30pm 16.6 13.4 7.0 53 4.8 S 13 20 7 11 1020.9 1020.7 0.0
24/12:00pm 16.3 13.1 7.0 54 4.6 S 13 19 7 10 1021.3 1021.1 0.0
24/11:30am 16.6 13.1 8.6 59 4.1 SSW 17 22 9 12 1021.6 1021.4 0.0
24/11:00am 15.7 12.4 8.0 60 3.9 SW 15 22 8 12 1021.7 1021.5 0.0
24/10:30am 15.7 12.4 8.0 60 3.9 SW 15 20 8 11 1021.7 1021.5 0.0
24/10:00am 15.8 14.2 8.1 60 3.9 S 6 13 3 7 1021.7 1021.5 0.0
24/09:30am 15.9 14.5 9.6 66 3.3 NE 7 11 4 6 1021.5 1021.3 0.0
24/09:00am 14.2 12.7 10.6 79 1.9 N 9 11 5 6 1021.3 1021.1 0.0
24/08:30am 12.1 11.5 11.6 97 0.3 N 6 9 3 5 1021.0 1020.8 0.0
24/08:00am 10.1 8.8 9.8 98 0.2 N 7 9 4 5 1020.7 1020.5 0.0
24/07:30am 8.5 6.2 7.6 94 0.4 N 9 11 5 6 1020.5 1020.3 0.0
24/07:00am 9.9 8.5 8.7 92 0.6 NNE 6 7 3 4 1020.2 1020.0 0.0
24/06:30am 11.2 10.7 9.5 89 0.9 NNE 2 6 1 3 1020.0 1019.8 0.0
24/06:00am 11.6 10.4 9.7 88 1.0 NNE 6 7 3 4 1020.0 1019.8 0.0
24/05:30am 12.0 10.8 9.6 85 1.2 NE 6 7 3 4 1020.0 1019.8 0.0
24/05:00am 12.1 10.9 9.5 84 1.3 ENE 6 7 3 4 1020.1 1019.9 0.0
24/04:30am 12.1 10.6 9.3 83 1.4 NE 7 9 4 5 1020.3 1020.1 0.0
24/04:00am 11.8 10.6 9.4 85 1.2 NW 6 9 3 5 1020.5 1020.3 0.0
24/03:30am 11.8 10.0 9.5 86 1.2 NW 9 11 5 6 1020.5 1020.3 0.0
24/03:00am 11.9 10.4 9.3 84 1.3 NNW 7 9 4 5 1020.8 1020.6 0.0
24/02:30am 12.1 10.2 9.1 82 1.5 N 9 11 5 6 1020.9 1020.7 0.0
24/02:00am 12.2 10.6 8.7 79 1.7 NNE 7 9 4 5 1021.2 1021.0 0.0
24/01:30am 12.7 11.6 8.4 75 2.1 NE 4 7 2 4 1021.4 1021.2 0.0
24/01:00am 13.4 11.0 8.7 73 2.4 S 11 15 6 8 1021.4 1021.2 0.0
24/12:30am 13.6 11.3 8.9 73 2.4 SSE 11 13 6 7 1021.5 1021.3 0.0
24/12:00am 13.6 10.5 8.9 73 2.4 SSE 15 19 8 10 1021.6 1021.4 0.0
 
Date/Time
EDT
Temp
°C
App
Temp
°C
Dew
Point
°C
Rel
Hum
%
Delta-T
°C
Wind Press
QNH
hPa
Press
MSL
hPa
Rain since
9am
mm
Dir  Spd
km/h
Gust
km/h
Spd
kts
Gust
kts
23/11:30pm 13.6 11.0 9.5 76 2.1 S 13 19 7 10 1021.6 1021.4 0.0
23/11:00pm 12.7 10.6 8.4 75 2.1 S 9 11 5 6 1021.7 1021.5 0.0
23/10:30pm 13.3 10.5 8.4 72 2.5 S 13 15 7 8 1021.8 1021.6 0.0
23/10:00pm 13.4 10.6 8.7 73 2.4 SSW 13 19 7 10 1021.9 1021.7 0.0

Other formats

Comma delimited format used in spreadsheet applications
http://www.bom.gov.au/fwo/IDV60801/IDV60801.94837.axf

JavaScript Object Notation format (JSON) in row-major order
http://www.bom.gov.au/fwo/IDV60801/IDV60801.94837.json

Data quality

Most of these data are generated automatically and are frequently updated. Quality checks on data are not normally performed. It is possible for incorrect values to appear. Refer to information at About Latest Weather Observations and please check the disclaimer before using these data.